This is the latest recevied weather packets stored in our database for station/object TG8AKV-17. If no packets are shown the sender has not sent any weather packets the latest 10 day(s).
| Time | Temp. | Humidity | Pressure | Rain* | Wind** | Luminosity | Snow |
|---|---|---|---|---|---|---|---|
| 1777505488 | 18.89° C | 77% | 1012 hPa | 0 mm | - | - | - |
| 1777502485 | 22.22° C | 62% | 1012 hPa | 0 mm | - | - | - |
| 1777501284 | 15° C | 92% | 1012 hPa | 0 mm | - | - | - |
| 1777499482 | 14.44° C | 94% | 1012 hPa | 0 mm | - | - | - |
| 1777498281 | 13.89° C | 93% | 1012 hPa | 0 mm | - | - | - |
| 1777496479 | 15° C | 94% | 1012 hPa | 0 mm | - | - | - |
| 1777483866 | 21.11° C | 58% | 1015 hPa | 0 mm | - | - | - |
| 1777480262 | 19.44° C | 56% | 1015 hPa | 0 mm | - | - | - |
| 1777476658 | 17.22° C | 67% | 1016 hPa | 0 mm | - | - | - |
| 1777468250 | 6.11° C | 93% | 1017 hPa | 0 mm | - | - | - |
| 1777465848 | 9.44° C | 94% | 1017 hPa | 0 mm | - | - | - |
| 1777465247 | 9.44° C | 93% | 1017 hPa | 0 mm | - | - | - |
| 1777464046 | 9.44° C | 93% | 1017 hPa | 0 mm | - | - | - |
| 1777462845 | 9.44° C | 93% | 1017 hPa | 0 mm | - | - | - |
| 1777462244 | 9.44° C | 92% | 1017 hPa | 0 mm | - | - | - |
| 1777458639 | 9.44° C | 92% | 1017 hPa | 0 mm | - | - | - |
| 1777458039 | 9.44° C | 93% | 1017 hPa | 0 mm | - | - | - |
| 1777457438 | 9.44° C | 93% | 1017 hPa | 0 mm | - | - | - |
| 1777455636 | 9.44° C | 93% | 1017 hPa | 0 mm | - | - | - |
| 1777455036 | 9.44° C | 93% | 1017 hPa | 0 mm | - | - | - |
| 1777454435 | 9.44° C | 94% | 1017 hPa | 0 mm | - | - | - |
| 1777453834 | 11.11° C | 92% | 1017 hPa | 0 mm | - | - | - |
| 1777453234 | 11.11° C | 91% | 1017 hPa | 0 mm | - | - | - |
| 1777452033 | 11.11° C | 94% | 1017 hPa | 0 mm | - | - | - |
| 1777451432 | 11.11° C | 94% | 1017 hPa | 0 mm | - | - | - |
* Rain latest hour (hover to see other rain measurements)
** Current wind speed in m/s (hover to see current wind gust speed)